createdAt,value
2023-05-01T00:01:41.832Z,8.79
2023-05-01T00:04:08.758Z,8.74
2023-05-01T00:06:35.597Z,8.69
2023-05-01T00:09:02.519Z,8.65
2023-05-01T00:11:28.938Z,8.64
2023-05-01T00:13:55.497Z,8.61
2023-05-01T00:16:22.024Z,8.61
2023-05-01T00:18:48.588Z,8.58
2023-05-01T00:21:14.979Z,8.56
2023-05-01T00:23:41.460Z,8.52
2023-05-01T00:26:08.059Z,8.50
2023-05-01T00:28:34.469Z,8.48
2023-05-01T00:31:00.936Z,8.44
2023-05-01T00:33:27.377Z,8.43
2023-05-01T00:35:54.134Z,8.42
2023-05-01T00:38:22.148Z,8.40
2023-05-01T00:40:49.185Z,8.38
2023-05-01T00:43:15.867Z,8.36
2023-05-01T00:45:45.323Z,8.34
2023-05-01T00:48:12.359Z,8.33
2023-05-01T00:50:39.317Z,8.32
2023-05-01T00:53:05.913Z,8.29
2023-05-01T00:55:33.652Z,8.28
2023-05-01T00:58:01.557Z,8.25
2023-05-01T01:00:29.462Z,8.24
2023-05-01T01:02:56.093Z,8.20
2023-05-01T01:05:27.332Z,8.16
2023-05-01T01:08:05.757Z,8.13
2023-05-01T01:10:55.459Z,8.09
2023-05-01T01:13:31.750Z,8.06
2023-05-01T01:16:09.667Z,8.00
2023-05-01T01:19:17.052Z,7.96
2023-05-01T01:21:47.427Z,7.91
2023-05-01T01:24:29.146Z,7.90
2023-05-01T01:27:23.350Z,7.85
2023-05-01T01:30:08.453Z,7.81
2023-05-01T01:32:55.229Z,7.78
2023-05-01T01:35:27.073Z,7.76
2023-05-01T01:38:06.699Z,7.74
2023-05-01T01:40:50.728Z,7.71
2023-05-01T01:43:20.306Z,7.68
2023-05-01T01:45:50.174Z,7.67
2023-05-01T01:48:25.420Z,7.67
2023-05-01T01:50:54.868Z,7.64
2023-05-01T01:53:23.919Z,7.64
2023-05-01T01:55:53.408Z,7.62
2023-05-01T01:58:26.172Z,7.60
2023-05-01T02:00:55.350Z,7.60
2023-05-01T02:03:23.767Z,7.60
2023-05-01T02:05:52.056Z,7.58
2023-05-01T02:08:19.936Z,7.57
2023-05-01T02:10:48.660Z,7.55
2023-05-01T02:13:16.185Z,7.55
2023-05-01T02:15:45.886Z,7.52
2023-05-01T02:18:13.976Z,7.51
2023-05-01T02:20:42.827Z,7.50
2023-05-01T02:23:10.029Z,7.48
2023-05-01T02:25:39.341Z,7.46
2023-05-01T02:28:12.906Z,7.42
2023-05-01T02:30:39.951Z,7.42
2023-05-01T02:33:09.532Z,7.40
2023-05-01T02:35:40.955Z,7.38
2023-05-01T02:38:08.300Z,7.38
2023-05-01T02:40:38.489Z,7.39
2023-05-01T02:43:08.970Z,7.39
2023-05-01T02:45:38.978Z,7.40
2023-05-01T02:48:07.960Z,7.42
2023-05-01T02:50:36.843Z,7.42
2023-05-01T02:53:03.813Z,7.45
2023-05-01T02:55:30.490Z,7.46
2023-05-01T02:58:00.239Z,7.47
2023-05-01T03:00:27.980Z,7.48
2023-05-01T03:02:54.780Z,7.51
2023-05-01T03:05:21.406Z,7.51
2023-05-01T03:07:48.444Z,7.51
2023-05-01T03:10:15.006Z,7.54
2023-05-01T03:12:41.953Z,7.56
2023-05-01T03:15:09.338Z,7.58
2023-05-01T03:17:35.816Z,7.62
2023-05-01T03:20:02.454Z,7.63
2023-05-01T03:22:29.734Z,7.65
2023-05-01T03:24:56.187Z,7.67
2023-05-01T03:27:22.647Z,7.70
2023-05-01T03:29:49.793Z,7.70
2023-05-01T03:32:17.894Z,7.74
2023-05-01T03:34:45.554Z,7.74
2023-05-01T03:37:12.164Z,7.75
2023-05-01T03:39:38.642Z,7.78
2023-05-01T03:42:05.809Z,7.79
2023-05-01T03:44:32.931Z,7.82
2023-05-01T03:46:59.473Z,7.83
2023-05-01T03:49:26.085Z,7.84
2023-05-01T03:51:52.591Z,7.84
2023-05-01T03:54:19.079Z,7.85
2023-05-01T03:56:45.572Z,7.87
2023-05-01T03:59:12.452Z,7.87
2023-05-01T04:01:40.560Z,7.90
2023-05-01T04:04:08.039Z,7.89
2023-05-01T04:06:34.976Z,7.94
2023-05-01T04:09:01.753Z,7.95
2023-05-01T04:11:28.442Z,7.98
2023-05-01T04:13:54.906Z,8.00
2023-05-01T04:16:22.084Z,8.03
2023-05-01T04:18:48.602Z,8.02
2023-05-01T04:21:17.643Z,8.03
2023-05-01T04:23:44.352Z,8.04
2023-05-01T04:26:10.934Z,8.06
2023-05-01T04:28:37.431Z,8.04
2023-05-01T04:31:04.226Z,8.06
2023-05-01T04:33:30.813Z,8.05
2023-05-01T04:35:57.334Z,8.07
2023-05-01T04:38:23.772Z,8.11
2023-05-01T04:40:50.346Z,8.14
2023-05-01T04:43:16.898Z,8.18
2023-05-01T04:45:43.406Z,8.21
2023-05-01T04:48:10.018Z,8.22
2023-05-01T04:50:37.681Z,8.25
2023-05-01T04:53:04.195Z,8.26
2023-05-01T04:55:31.321Z,8.31
2023-05-01T04:57:57.804Z,8.35
2023-05-01T05:00:24.427Z,8.37
2023-05-01T05:02:51.123Z,8.42
2023-05-01T05:05:17.672Z,8.44
2023-05-01T05:07:44.165Z,8.47
2023-05-01T05:10:10.763Z,8.54
2023-05-01T05:12:37.266Z,8.57
2023-05-01T05:15:03.762Z,8.61
2023-05-01T05:17:30.254Z,8.63
2023-05-01T05:19:56.996Z,8.69
2023-05-01T05:22:24.184Z,8.74
2023-05-01T05:24:55.730Z,8.79
2023-05-01T05:27:22.210Z,8.85
2023-05-01T05:29:48.616Z,8.89
2023-05-01T05:32:15.299Z,8.93
2023-05-01T05:34:41.816Z,8.98
2023-05-01T05:37:08.659Z,9.07
2023-05-01T05:39:35.135Z,9.12
2023-05-01T05:42:01.774Z,9.16
2023-05-01T05:44:28.226Z,9.20
2023-05-01T05:46:54.680Z,9.29
2023-05-01T05:49:21.179Z,9.33
2023-05-01T05:51:47.599Z,9.37
2023-05-01T05:54:14.128Z,9.39
2023-05-01T05:56:40.546Z,9.41
2023-05-01T05:59:07.079Z,9.46
2023-05-01T06:01:33.737Z,9.51
2023-05-01T06:04:00.355Z,9.55
2023-05-01T06:06:27.643Z,9.64
2023-05-01T06:08:54.318Z,9.65
2023-05-01T06:11:21.886Z,9.68
2023-05-01T06:13:48.426Z,9.75
2023-05-01T06:16:15.230Z,9.82
2023-05-01T06:18:43.766Z,9.90
2023-05-01T06:21:11.751Z,9.97
2023-05-01T06:23:38.184Z,10.01
2023-05-01T06:26:04.690Z,10.09
2023-05-01T06:28:31.619Z,10.22
2023-05-01T06:30:58.255Z,10.29
2023-05-01T06:33:24.823Z,10.37
2023-05-01T06:35:51.574Z,10.51
2023-05-01T06:38:18.012Z,10.57
2023-05-01T06:40:47.064Z,10.74
2023-05-01T06:43:13.540Z,10.81
2023-05-01T06:45:41.319Z,10.90
2023-05-01T06:48:07.887Z,11.04
2023-05-01T06:50:34.436Z,11.15
2023-05-01T06:53:02.657Z,11.24
2023-05-01T06:55:34.549Z,11.29
2023-05-01T06:58:04.815Z,11.35
2023-05-01T07:00:39.399Z,11.42
2023-05-01T07:03:05.983Z,11.50
2023-05-01T07:05:32.539Z,11.55
2023-05-01T07:08:01.672Z,11.59
2023-05-01T07:10:29.187Z,11.61
2023-05-01T07:12:55.657Z,11.69
2023-05-01T07:15:22.302Z,11.81
2023-05-01T07:17:52.121Z,11.81
2023-05-01T07:20:18.972Z,11.80
2023-05-01T07:22:45.544Z,11.83
2023-05-01T07:25:12.075Z,11.90
2023-05-01T07:27:38.599Z,11.93
2023-05-01T07:30:05.753Z,12.03
2023-05-01T07:32:33.208Z,12.12
2023-05-01T07:35:00.061Z,12.28
2023-05-01T07:37:27.061Z,12.36
2023-05-01T07:39:53.559Z,12.53
2023-05-01T07:42:20.469Z,12.72
2023-05-01T07:44:47.009Z,12.85
2023-05-01T07:47:13.472Z,12.89
2023-05-01T07:49:40.212Z,12.87
2023-05-01T07:52:09.778Z,12.89
2023-05-01T07:54:36.738Z,12.92
2023-05-01T07:57:04.446Z,12.91
2023-05-01T07:59:31.041Z,12.92
2023-05-01T08:01:57.652Z,12.92
2023-05-01T08:04:24.528Z,12.93
2023-05-01T08:06:51.650Z,12.97
2023-05-01T08:09:18.128Z,12.97
2023-05-01T08:11:44.626Z,13.04
2023-05-01T08:14:11.378Z,13.16
2023-05-01T08:16:37.903Z,13.12
2023-05-01T08:19:04.499Z,13.14
2023-05-01T08:21:31.441Z,13.18
2023-05-01T08:23:57.915Z,13.14
2023-05-01T08:26:24.537Z,13.23
2023-05-01T08:28:51.078Z,13.32
2023-05-01T08:31:19.287Z,13.33
2023-05-01T08:33:45.715Z,13.35
2023-05-01T08:36:12.316Z,13.36
2023-05-01T08:38:38.770Z,13.44
2023-05-01T08:41:06.190Z,13.49
2023-05-01T08:43:35.584Z,13.59
2023-05-01T08:46:02.930Z,13.66
2023-05-01T08:48:32.284Z,13.62
2023-05-01T08:51:00.652Z,13.71
2023-05-01T08:53:28.052Z,13.76
2023-05-01T08:55:56.717Z,13.84
2023-05-01T08:58:25.227Z,13.92
2023-05-01T09:00:53.136Z,13.93
2023-05-01T09:03:20.978Z,14.01
2023-05-01T09:05:47.593Z,14.02
2023-05-01T09:08:14.583Z,14.05
2023-05-01T09:10:46.179Z,14.11
2023-05-01T09:13:12.615Z,14.12
2023-05-01T09:15:39.323Z,14.18
2023-05-01T09:18:06.010Z,14.29
2023-05-01T09:35:10.584Z,15.29
2023-05-01T09:37:37.071Z,15.48
2023-05-01T09:40:14.607Z,15.62
2023-05-01T09:42:52.872Z,15.73
2023-05-01T09:45:19.899Z,15.85
2023-05-01T09:47:47.061Z,15.98
2023-05-01T09:50:34.218Z,16.11
2023-05-01T09:53:02.110Z,16.25
2023-05-01T09:55:28.653Z,16.43
2023-05-01T09:57:55.118Z,16.61
2023-05-01T10:00:22.304Z,16.59
2023-05-01T10:02:50.080Z,16.54
2023-05-01T10:05:17.719Z,16.55
2023-05-01T10:08:02.182Z,16.54
2023-05-01T10:10:29.169Z,16.59
2023-05-01T10:12:55.855Z,16.61
2023-05-01T10:15:26.240Z,16.67
2023-05-01T10:17:54.541Z,16.85
2023-05-01T10:20:21.885Z,16.96
2023-05-01T10:22:49.041Z,17.02
2023-05-01T10:25:18.190Z,17.00
2023-05-01T10:27:44.866Z,17.05
2023-05-01T10:30:11.779Z,17.07
2023-05-01T10:32:41.033Z,17.24
2023-05-01T10:35:12.631Z,17.43
2023-05-01T10:37:48.002Z,17.53
2023-05-01T10:40:44.336Z,17.75
2023-05-01T10:43:30.479Z,17.75
2023-05-01T10:46:09.277Z,17.75
2023-05-01T10:48:38.742Z,17.74
2023-05-01T10:51:20.444Z,17.80
2023-05-01T10:53:48.963Z,17.96
2023-05-01T10:56:21.358Z,18.16
2023-05-01T10:58:53.533Z,18.26
2023-05-01T11:01:33.059Z,18.32
2023-05-01T11:04:27.303Z,18.35
2023-05-01T11:07:07.798Z,18.40
2023-05-01T11:09:54.886Z,18.48
2023-05-01T11:12:48.906Z,18.45
2023-05-01T11:15:32.599Z,18.68
2023-05-01T11:18:03.757Z,18.60
2023-05-01T11:20:30.329Z,18.41
2023-05-01T11:22:57.450Z,18.35
2023-05-01T11:25:27.684Z,18.44
2023-05-01T11:27:59.857Z,18.51
2023-05-01T11:30:26.452Z,18.56
2023-05-01T11:32:53.384Z,18.63
2023-05-01T11:35:28.428Z,18.69
2023-05-01T11:37:57.538Z,18.86
2023-05-01T12:01:56.713Z,20.78
2023-05-01T12:04:31.631Z,21.30
2023-05-01T12:06:59.065Z,21.39
2023-05-01T12:09:29.986Z,21.45
2023-05-01T12:12:00.338Z,21.71
2023-05-01T12:14:27.002Z,21.63
2023-05-01T12:16:53.826Z,21.58
2023-05-01T12:19:22.471Z,21.60
2023-05-01T12:22:05.657Z,21.32
2023-05-01T12:24:32.202Z,21.00
2023-05-01T12:27:03.380Z,20.79
2023-05-01T12:29:42.872Z,20.55
2023-05-01T12:32:09.553Z,20.26
2023-05-01T12:34:36.938Z,20.13
2023-05-01T12:37:05.242Z,20.06
2023-05-01T12:39:40.497Z,19.90
2023-05-01T12:42:15.165Z,19.98
2023-05-01T12:44:43.400Z,19.86
2023-05-01T12:47:10.126Z,19.91
2023-05-01T12:49:37.850Z,19.82
2023-05-01T12:52:07.386Z,19.62
2023-05-01T12:54:39.332Z,19.59
2023-05-01T12:57:06.013Z,19.59
2023-05-01T12:59:32.671Z,19.57
2023-05-01T13:02:04.183Z,19.43
2023-05-01T13:04:30.984Z,19.11
2023-05-01T13:06:58.593Z,18.94
2023-05-01T13:09:33.269Z,18.82
2023-05-01T13:12:02.765Z,18.65
2023-05-01T13:14:30.861Z,18.56
2023-05-01T13:16:57.568Z,18.44
2023-05-01T13:19:28.445Z,18.28
2023-05-01T13:21:57.605Z,18.22
2023-05-01T13:24:35.656Z,18.11
2023-05-01T13:27:05.020Z,17.88
2023-05-01T13:29:32.670Z,17.76
2023-05-01T13:31:59.864Z,17.62
2023-05-01T13:34:30.920Z,17.44
2023-05-01T13:36:58.762Z,17.36
2023-05-01T13:39:25.850Z,17.40
2023-05-01T13:41:53.001Z,17.49
2023-05-01T13:44:20.949Z,17.50
2023-05-01T13:46:48.263Z,17.50
2023-05-01T13:49:17.342Z,17.38
2023-05-01T13:51:45.064Z,17.40
2023-05-01T13:54:12.480Z,17.50
2023-05-01T13:56:40.395Z,17.36
2023-05-01T13:59:08.449Z,17.23
2023-05-01T14:01:45.921Z,17.15
2023-05-01T14:04:18.128Z,17.09
2023-05-01T14:06:47.026Z,17.04
2023-05-01T14:09:17.324Z,17.08
2023-05-01T14:11:46.787Z,17.18
2023-05-01T14:14:17.453Z,17.26
2023-05-01T14:16:52.164Z,17.15
2023-05-01T14:19:18.840Z,17.20
2023-05-01T14:21:45.595Z,17.30
2023-05-01T14:24:13.440Z,17.58
2023-05-01T14:26:43.562Z,17.86
2023-05-01T14:29:27.985Z,18.16
2023-05-01T14:31:55.889Z,18.45
2023-05-01T14:34:22.691Z,18.51
2023-05-01T14:36:49.192Z,18.81
2023-05-01T14:39:18.665Z,19.01
2023-05-01T14:41:45.196Z,19.20
2023-05-01T14:44:15.870Z,19.40
2023-05-01T14:46:52.000Z,19.45
2023-05-01T14:49:24.442Z,19.24
2023-05-01T14:51:52.283Z,19.41
2023-05-01T14:54:20.492Z,19.48
2023-05-01T14:56:48.415Z,19.26
2023-05-01T14:59:15.200Z,19.10
2023-05-01T15:01:41.863Z,18.85
2023-05-01T15:04:08.471Z,18.62
2023-05-01T15:06:35.249Z,18.21
2023-05-01T15:09:02.109Z,17.89
2023-05-01T15:11:30.413Z,17.77
2023-05-01T15:13:56.906Z,17.80
2023-05-01T15:16:23.492Z,17.83
2023-05-01T15:18:49.981Z,17.75
2023-05-01T15:21:16.505Z,17.54
2023-05-01T15:23:45.199Z,17.37
2023-05-01T15:26:11.995Z,17.32
2023-05-01T15:28:38.675Z,17.36
2023-05-01T15:31:05.845Z,17.29
2023-05-01T15:33:32.369Z,17.32
2023-05-01T15:35:58.946Z,17.21
2023-05-01T15:38:26.207Z,17.33
2023-05-01T15:40:53.706Z,17.49
2023-05-01T15:43:21.136Z,17.67
2023-05-01T15:45:47.689Z,17.70
2023-05-01T15:48:14.328Z,17.55
2023-05-01T15:50:41.025Z,17.44
2023-05-01T15:53:07.502Z,17.29
2023-05-01T15:55:34.771Z,17.17
2023-05-01T15:58:02.754Z,16.99
2023-05-01T16:00:29.310Z,16.94
2023-05-01T16:02:55.906Z,16.87
2023-05-01T16:05:22.787Z,16.82
2023-05-01T16:07:54.165Z,16.73
2023-05-01T16:10:21.771Z,16.72
2023-05-01T16:12:50.771Z,16.69
2023-05-01T16:15:17.421Z,16.57
2023-05-01T16:17:45.262Z,16.51
2023-05-01T16:20:13.199Z,16.39
2023-05-01T16:22:41.522Z,16.38
2023-05-01T16:25:09.815Z,16.36
2023-05-01T16:27:41.154Z,16.31
2023-05-01T16:30:09.054Z,16.33
2023-05-01T16:32:35.826Z,16.25
2023-05-01T16:35:05.409Z,16.17
2023-05-01T16:37:33.640Z,16.29
2023-05-01T16:40:00.691Z,16.33
2023-05-01T16:42:27.502Z,16.48
2023-05-01T16:44:54.267Z,16.49
2023-05-01T16:47:20.837Z,16.36
2023-05-01T16:49:47.359Z,16.27
2023-05-01T16:52:15.620Z,16.20
2023-05-01T16:54:42.035Z,16.05
2023-05-01T16:57:08.616Z,15.98
2023-05-01T16:59:35.315Z,15.84
2023-05-01T17:02:01.796Z,15.73
2023-05-01T17:04:28.556Z,15.66
2023-05-01T17:06:56.218Z,15.54
2023-05-01T17:09:22.983Z,15.48
2023-05-01T17:11:49.492Z,15.38
2023-05-01T17:14:16.351Z,15.42
2023-05-01T17:16:42.892Z,15.43
2023-05-01T17:19:09.942Z,15.40
2023-05-01T17:21:36.573Z,15.40
2023-05-01T17:24:04.555Z,15.46
2023-05-01T17:26:31.185Z,15.50
2023-05-01T17:28:57.730Z,15.58
2023-05-01T17:31:24.228Z,15.61
2023-05-01T17:33:50.736Z,15.66
2023-05-01T17:36:17.300Z,15.57
2023-05-01T17:38:43.816Z,15.51
2023-05-01T17:41:10.660Z,15.52
2023-05-01T17:43:37.160Z,15.39
2023-05-01T17:46:04.817Z,15.35
2023-05-01T17:48:31.458Z,15.28
2023-05-01T17:50:58.078Z,15.24
2023-05-01T17:53:25.285Z,15.21
2023-05-01T17:55:52.090Z,15.05
2023-05-01T17:58:18.638Z,14.98
2023-05-01T18:00:47.423Z,14.84
2023-05-01T18:03:14.223Z,14.82
2023-05-01T18:05:40.871Z,14.84
2023-05-01T18:08:07.681Z,14.80
2023-05-01T18:10:34.245Z,14.76
2023-05-01T18:13:00.774Z,14.72
2023-05-01T18:15:27.356Z,14.70
2023-05-01T18:17:54.063Z,14.61
2023-05-01T18:20:20.713Z,14.48
2023-05-01T18:22:47.281Z,14.41
2023-05-01T18:25:15.857Z,14.32
2023-05-01T18:27:42.879Z,14.26
2023-05-01T18:30:09.723Z,14.21
2023-05-01T18:32:47.741Z,14.06
2023-05-01T18:35:15.707Z,13.95
2023-05-01T18:37:44.246Z,13.90
2023-05-01T18:40:11.685Z,13.89
2023-05-01T18:42:40.987Z,13.87
2023-05-01T18:45:08.321Z,13.86
2023-05-01T18:47:34.900Z,13.82
2023-05-01T18:50:02.084Z,13.75
2023-05-01T18:52:30.476Z,13.70
2023-05-01T18:54:57.036Z,13.64
2023-05-01T18:57:23.538Z,13.62
2023-05-01T18:59:50.034Z,13.52
2023-05-01T19:02:16.569Z,13.46
2023-05-01T19:04:56.586Z,13.39
2023-05-01T19:07:25.891Z,13.33
2023-05-01T19:09:53.681Z,13.29
2023-05-01T19:12:20.190Z,13.28
2023-05-01T19:14:47.044Z,13.26
2023-05-01T19:17:13.643Z,13.22
2023-05-01T19:19:40.192Z,13.18
2023-05-01T19:22:07.248Z,13.11
2023-05-01T19:24:45.906Z,13.03
2023-05-01T19:27:12.536Z,12.98
2023-05-01T19:29:39.695Z,12.92
2023-05-01T19:32:07.221Z,12.83
2023-05-01T19:34:33.829Z,12.78
2023-05-01T19:37:02.048Z,12.70
2023-05-01T19:39:29.592Z,12.68
2023-05-01T19:41:56.308Z,12.64
2023-05-01T19:44:23.066Z,12.59
2023-05-01T19:46:49.612Z,12.56
2023-05-01T19:49:16.577Z,12.52
2023-05-01T19:51:43.279Z,12.47
2023-05-01T19:54:09.937Z,12.42
2023-05-01T19:56:38.479Z,12.37
2023-05-01T19:59:05.105Z,12.26
2023-05-01T20:01:31.886Z,12.21
2023-05-01T20:03:58.486Z,12.16
2023-05-01T20:06:25.393Z,12.07
2023-05-01T20:08:51.911Z,11.98
2023-05-01T20:11:18.683Z,11.93
2023-05-01T20:13:45.935Z,11.82
2023-05-01T20:16:12.485Z,11.75
2023-05-01T20:18:38.919Z,11.74
2023-05-01T20:21:07.308Z,11.76
2023-05-01T20:23:34.505Z,11.76
2023-05-01T20:26:01.289Z,11.79
2023-05-01T20:28:28.662Z,11.80
2023-05-01T20:30:56.146Z,11.83
2023-05-01T20:33:23.030Z,11.80
2023-05-01T20:35:49.544Z,11.82
2023-05-01T20:38:16.204Z,11.85
2023-05-01T20:40:43.348Z,11.87
2023-05-01T20:43:11.337Z,11.86
2023-05-01T20:45:37.981Z,11.88
2023-05-01T20:48:04.592Z,11.90
2023-05-01T20:50:31.301Z,11.92
2023-05-01T20:52:57.869Z,11.91
2023-05-01T20:55:24.425Z,11.94
2023-05-01T20:57:50.948Z,11.96
2023-05-01T21:00:17.610Z,11.87
2023-05-01T21:02:44.783Z,11.81
2023-05-01T21:05:11.920Z,11.70
2023-05-01T21:07:40.069Z,11.63
2023-05-01T21:10:09.422Z,11.60
2023-05-01T21:12:36.416Z,11.57
2023-05-01T21:15:03.738Z,11.57
2023-05-01T21:17:34.518Z,11.52
2023-05-01T21:20:01.394Z,11.48
2023-05-01T21:22:28.465Z,11.40
2023-05-01T21:24:59.878Z,11.40
2023-05-01T21:27:27.724Z,11.38
2023-05-01T21:29:57.195Z,11.37
2023-05-01T21:32:39.875Z,11.38
2023-05-01T21:35:07.909Z,11.34
2023-05-01T21:37:34.401Z,11.34
2023-05-01T21:40:01.914Z,11.35
2023-05-01T21:42:35.815Z,11.33
2023-05-01T21:45:13.358Z,11.31
2023-05-01T21:47:42.327Z,11.32
2023-05-01T21:50:12.815Z,11.34
2023-05-01T21:52:39.752Z,11.34
2023-05-01T21:55:08.460Z,11.38
2023-05-01T21:57:36.468Z,11.40
2023-05-01T22:00:04.772Z,11.36
2023-05-01T22:02:40.395Z,11.37
2023-05-01T22:05:08.003Z,11.36
2023-05-01T22:07:37.815Z,11.38
2023-05-01T22:10:04.717Z,11.35
2023-05-01T22:12:31.149Z,11.36
2023-05-01T22:14:57.648Z,11.39
2023-05-01T22:17:24.502Z,11.38
2023-05-01T22:19:51.650Z,11.36
2023-05-01T22:22:18.857Z,11.36
2023-05-01T22:24:45.512Z,11.37
2023-05-01T22:27:12.186Z,11.34
2023-05-01T22:29:38.640Z,11.31
2023-05-01T22:32:05.503Z,11.31
2023-05-01T22:34:31.927Z,11.31
2023-05-01T22:36:58.394Z,11.26
2023-05-01T22:39:24.812Z,11.27
2023-05-01T22:41:51.289Z,11.25
2023-05-01T22:44:18.000Z,11.25
2023-05-01T22:46:44.677Z,11.19
2023-05-01T22:49:11.622Z,11.19
2023-05-01T22:51:38.319Z,11.18
2023-05-01T22:54:04.811Z,11.14
2023-05-01T22:56:31.235Z,11.08
2023-05-01T22:58:57.664Z,11.05
2023-05-01T23:01:24.360Z,11.05
2023-05-01T23:03:51.249Z,10.99
2023-05-01T23:06:21.407Z,10.88
2023-05-01T23:08:51.563Z,10.79
2023-05-01T23:11:18.865Z,10.72
2023-05-01T23:13:47.726Z,10.67
2023-05-01T23:16:18.167Z,10.69
2023-05-01T23:18:45.529Z,10.70
2023-05-01T23:21:17.958Z,10.73
2023-05-01T23:23:46.467Z,10.75
2023-05-01T23:26:24.318Z,10.76
2023-05-01T23:28:51.371Z,10.77
2023-05-01T23:31:22.795Z,10.81
2023-05-01T23:33:49.318Z,10.82
2023-05-01T23:36:15.795Z,10.82
2023-05-01T23:38:42.356Z,10.78
2023-05-01T23:41:09.354Z,10.70
2023-05-01T23:43:37.922Z,10.65
2023-05-01T23:46:06.589Z,10.64
2023-05-01T23:48:34.518Z,10.61
2023-05-01T23:51:02.521Z,10.60
2023-05-01T23:53:29.461Z,10.62
2023-05-01T23:55:55.996Z,10.64
2023-05-01T23:58:23.174Z,10.65
